Celandine — ONDN — position and weather

sailwx.info

Track history (hours):
 
Tides and Currents Weather Stations Pressure Air Temp Water Temp Dewpoint Dewpoint Depression Visibility Wind Speed Wind Dir Waves Ship Positions

Celandine

Last reported at 2015-Mar-04 19:34 UTC. Time now 2015-Mar-04 20:19 UTC.
Position N 57°41' E 010°57'.

Length 162 m; draft 6.2 m.

Type: Ship (hazmat cat A). MMSI: 205476000.

Date/timePositionNaut miles runAvg speedWind from/ knotsBaromVisibWave heightAir tempDewpointWater temp
2015-Mar-04 19:34N 57°41' E 010°57'1413.8
2015-Mar-04 18:33N 57°51' E 010°39'1312.5
2015-Mar-04 17:33N 57°46' E 010°17'1815.5
2015-Mar-04 16:24N 57°38' E 009°47'3712.5
2015-Mar-04 13:28N 57°20' E 008°48'2512.0
2015-Mar-04 11:22N 57°09' E 008°06'9917.1
2015-Mar-04 05:33N 55°41' E 006°41'1918.9
2015-Mar-04 04:33N 55°24' E 006°27'1311.8
2015-Mar-04 03:29N 55°12' E 006°20'6616.6
2015-Mar-03 23:32N 54°10' E 005°44'1615.8
2015-Mar-03 22:33N 53°57' E 005°29'1716.8
2015-Mar-03 21:33N 53°46' E 005°08'1716.7
2015-Mar-03 20:33N 53°33' E 004°49'1716.6
2015-Mar-03 19:33N 53°18' E 004°36'2016.6
2015-Mar-03 18:20N 53°00' E 004°21'4916.8
2015-Mar-03 15:23N 52°20' E 003°34'1617.6
2015-Mar-03 14:27N 52°04' E 003°25'1516.8
2015-Mar-03 13:33N 51°50' E 003°17'1717.1
2015-Mar-03 12:33N 51°34' E 003°07'1111.1
2015-Mar-03 11:33N 51°23' E 003°10'3 2.6
2015-Mar-03 10:19N 51°21' E 003°13'0 0.0
2015-Mar-03 09:04N 51°21' E 003°13'0 0.0
2015-Mar-03 08:31N 51°21' E 003°13'0 0.0
2015-Mar-03 07:19N 51°21' E 003°13'0 0.0
2015-Mar-03 06:19N 51°21' E 003°13'0 0.0
2015-Mar-03 05:22N 51°21' E 003°13'0 0.0
2015-Mar-03 04:28N 51°21' E 003°13'0 0.0
2015-Mar-03 03:31N 51°21' E 003°13'0 0.0
2015-Mar-03 02:31N 51°21' E 003°13'0 0.0
2015-Mar-03 01:22N 51°21' E 003°13'0 0.0
2015-Mar-03 00:31N 51°21' E 003°13'0 0.0
2015-Mar-02 23:22N 51°21' E 003°13'0 0.0
2015-Mar-02 22:10N 51°21' E 003°13'0 0.0
2015-Mar-02 21:25N 51°21' E 003°13'0 0.0
2015-Mar-02 20:28N 51°21' E 003°13'0 0.0
2015-Mar-02 19:10N 51°21' E 003°13'0 0.0
2015-Mar-02 18:31N 51°21' E 003°13'0 0.0
2015-Mar-02 17:19N 51°21' E 003°13'0 0.0
2015-Mar-02 16:07N 51°21' E 003°13'0 0.0
2015-Mar-02 15:19N 51°21' E 003°13'0 0.0
2015-Mar-02 14:10N 51°21' E 003°13'0 0.0
2015-Mar-02 13:19N 51°21' E 003°13'0 0.0
2015-Mar-02 12:22N 51°21' E 003°13'0 0.0
2015-Mar-02 11:25N 51°21' E 003°13'0 0.0
2015-Mar-02 10:07N 51°21' E 003°13'0 0.0
2015-Mar-02 09:25N 51°21' E 003°13'0 0.0
2015-Mar-02 06:22N 51°21' E 003°13'2 2.6
2015-Mar-02 05:33N 51°22' E 003°11'1010.4
2015-Mar-02 04:33N 51°32' E 003°07'1615.7
2015-Mar-02 03:33N 51°48' E 003°12'1614.7
2015-Mar-02 02:30N 52°02' E 003°21'1514.7
2015-Mar-02 01:28N 52°16' E 003°30'7114.3
2015-Mar-01 20:30N 53°17' E 004°30'2115.3
2015-Mar-01 19:09N 53°37' E 004°41'914.4
2015-Mar-01 18:33N 53°42' E 004°53'1413.8
2015-Mar-01 17:33N 53°49' E 005°12'1313.4
2015-Mar-01 16:33N 53°60' E 005°27'1313.1
2015-Mar-01 15:34N 54°11' E 005°38'5713.7
2015-Mar-01 11:26N 55°03' E 006°15'1213.3
2015-Mar-01 10:33N 55°14' E 006°23'19811.6
2015-Feb-28 17:29N 57°46' E 010°13'1415.1
2015-Feb-28 16:34N 57°51' E 010°38'1514.5
2015-Feb-28 15:33N 57°44' E 011°03'1615.7
2015-Feb-28 14:33N 57°38' E 011°29'1211.9
2015-Feb-28 13:34N 57°41' E 011°50'1 1.0
2015-Feb-28 12:28N 57°41' E 011°52'0 0.0
2015-Feb-28 11:31N 57°41' E 011°52'0 0.0
2015-Feb-28 10:31N 57°41' E 011°52'0 0.0
2015-Feb-28 09:31N 57°41' E 011°52'0 0.0
2015-Feb-28 08:31N 57°41' E 011°52'0 0.0
2015-Feb-28 07:31N 57°41' E 011°52'0 0.0
2015-Feb-28 06:34N 57°41' E 011°52'4 4.4
2015-Feb-28 05:33N 57°39' E 011°45'1212.3
2015-Feb-28 04:33N 57°37' E 011°22'1312.4
2015-Feb-28 03:33N 57°40' E 010°59'1313.1
2015-Feb-28 02:33N 57°49' E 010°42'6913.7
2015-Feb-27 21:31N 57°22' E 008°43'1514.4
2015-Feb-27 20:26N 57°13' E 008°20'2014.7
2015-Feb-27 19:04N 56°57' E 007°58'8816.0
2015-Feb-27 13:33N 55°40' E 006°41'1313.1
2015-Feb-27 12:33N 55°28' E 006°30'1513.2
2015-Feb-27 11:25N 55°14' E 006°22'1416.5
2015-Feb-27 10:33N 55°00' E 006°14'4916.2
2015-Feb-27 07:33N 54°14' E 005°46'1515.1
2015-Feb-27 06:33N 54°01' E 005°35'1616.1
2015-Feb-27 05:33N 53°50' E 005°15'1616.2
2015-Feb-27 04:33N 53°39' E 004°55'1615.7
2015-Feb-27 03:33N 53°25' E 004°42'1715.8
2015-Feb-27 02:28N 53°10' E 004°29'1415.8
2015-Feb-27 01:33N 52°57' E 004°19'1615.9
2015-Feb-27 00:33N 52°43' E 004°04'1616.5
2015-Feb-26 23:33N 52°32' E 003°45'1616.0
2015-Feb-26 22:33N 52°17' E 003°33'1716.7
2015-Feb-26 21:33N 52°01' E 003°25'1716.5
2015-Feb-26 20:33N 51°47' E 003°12'1716.9
2015-Feb-26 19:34N 51°31' E 003°05'1111.1
2015-Feb-26 18:33N 51°21' E 003°13'0 0.1
2015-Feb-26 15:22N 51°21' E 003°13'0 0.0
2015-Feb-26 14:22N 51°21' E 003°13'0 0.0
2015-Feb-26 13:28N 51°21' E 003°13'0 0.0
2015-Feb-26 12:32N 51°21' E 003°13'0 0.0
2015-Feb-26 11:33N 51°21' E 003°13'0 0.0
2015-Feb-26 10:33N 51°21' E 003°13'0 0.0
2015-Feb-26 09:33N 51°21' E 003°13'10 9.6
2015-Feb-26 08:33N 51°25' E 002°60'1212.4
2015-Feb-26 07:33N 51°37' E 003°08'1414.3
2015-Feb-26 06:33N 51°50' E 003°15'1614.7
2015-Feb-26 05:29N 52°05' E 003°23'1516.3
2015-Feb-26 04:33N 52°19' E 003°33'1716.9
2015-Feb-26 03:33N 52°33' E 003°48'2317.4
2015-Feb-26 02:14N 52°55' E 003°59'1617.2
2015-Feb-26 01:18N 53°06' E 004°18'1516.3
2015-Feb-26 00:24N 53°19' E 004°31'1416.2
2015-Feb-25 23:33N 53°32' E 004°37'1615.6
2015-Feb-25 22:33N 53°43' E 004°56'1616.1
2015-Feb-25 21:33N 53°53' E 005°18'1717.0
2015-Feb-25 20:33N 54°04' E 005°40'7029.4
2015-Feb-25 18:11N 55°10' E 006°18'0 0.2
2015-Feb-25 16:29N 55°09' E 006°18'20014.4
2015-Feb-25 02:33N 57°43' E 010°11'1414.1
2015-Feb-25 01:33N 57°48' E 010°35'1514.8
2015-Feb-25 00:34N 57°44' E 011°02'1615.8
2015-Feb-24 23:33N 57°38' E 011°29'1212.5
2015-Feb-24 22:34N 57°41' E 011°52'0 0.4
2015-Feb-24 21:33N 57°41' E 011°52'0 0.0
2015-Feb-24 20:33N 57°41' E 011°52'0 0.0
2015-Feb-24 19:33N 57°41' E 011°52'0 0.0
2015-Feb-24 18:30N 57°41' E 011°52'0 0.0
2015-Feb-24 17:33N 57°41' E 011°52'0 0.0
2015-Feb-24 16:33N 57°41' E 011°52'0 0.0
2015-Feb-24 15:33N 57°41' E 011°52'0 0.0
2015-Feb-24 14:33N 57°41' E 011°52'0 0.0
2015-Feb-24 13:33N 57°41' E 011°52'0 0.0
2015-Feb-24 12:33N 57°41' E 011°52'0 0.0
2015-Feb-24 11:33N 57°41' E 011°52'0 0.0
2015-Feb-24 10:33N 57°41' E 011°52'0 0.0
2015-Feb-24 09:33N 57°41' E 011°52'0 0.0
2015-Feb-24 08:33N 57°41' E 011°52'0 0.0
2015-Feb-24 07:33N 57°41' E 011°52'0 0.0
2015-Feb-24 06:33N 57°41' E 011°52'0 0.0
2015-Feb-24 05:33N 57°41' E 011°52'0 0.0
2015-Feb-24 04:33N 57°41' E 011°52'0 0.0
2015-Feb-24 03:33N 57°41' E 011°52'0 0.0
2015-Feb-24 02:33N 57°41' E 011°52'0 0.0
2015-Feb-24 01:33N 57°41' E 011°52'0 0.0
2015-Feb-24 00:33N 57°41' E 011°52'0 0.0
2015-Feb-23 23:33N 57°41' E 011°52'0 0.0
2015-Feb-23 22:33N 57°41' E 011°52'0 0.0
2015-Feb-23 21:33N 57°41' E 011°52'0 0.0
2015-Feb-23 20:33N 57°41' E 011°52'0 0.0
2015-Feb-23 19:33N 57°41' E 011°52'0 0.0
2015-Feb-23 18:33N 57°41' E 011°52'0 0.0
2015-Feb-23 17:33N 57°41' E 011°52'0 0.0
2015-Feb-23 16:33N 57°41' E 011°52'0 0.0
2015-Feb-23 15:33N 57°41' E 011°52'0 0.0
2015-Feb-23 14:33N 57°41' E 011°52'0 0.0
2015-Feb-23 13:33N 57°41' E 011°52'0 0.0
2015-Feb-23 12:33N 57°41' E 011°52'0 0.0
2015-Feb-23 11:33N 57°41' E 011°52'0 0.0
2015-Feb-23 10:33N 57°41' E 011°52'0 0.0
2015-Feb-23 09:33N 57°41' E 011°52'0 0.0
2015-Feb-23 08:33N 57°41' E 011°52'0 0.0
2015-Feb-23 07:33N 57°41' E 011°52'0 0.0
2015-Feb-23 06:33N 57°41' E 011°52'0 0.0
2015-Feb-23 05:33N 57°41' E 011°52'0 0.0
2015-Feb-23 04:33N 57°41' E 011°52'0 0.0
2015-Feb-23 03:33N 57°41' E 011°52'0 0.0
2015-Feb-23 02:33N 57°41' E 011°52'0 0.0
2015-Feb-23 01:33N 57°41' E 011°52'0 0.0
2015-Feb-23 00:33N 57°41' E 011°52'0 0.0
2015-Feb-22 23:33N 57°41' E 011°52'0 0.0
2015-Feb-22 22:33N 57°41' E 011°52'0 0.0
2015-Feb-22 21:33N 57°41' E 011°52'0 0.0
2015-Feb-22 20:33N 57°41' E 011°52'  
Track history (hours):
 
Tides and Currents Weather Stations Pressure Air Temp Water Temp Dewpoint Dewpoint Depression Visibility Wind Speed Wind Dir Waves Ship Positions

Celandine

Last reported at 2015-Mar-04 19:34 UTC. Time now 2015-Mar-04 20:19 UTC.
Position N 57°41' E 010°57'.

Length 162 m; draft 6.2 m.

Type: Ship (hazmat cat A). MMSI: 205476000.

Date/timePositionNaut miles runAvg speedWind from/ knotsBaromVisibWave heightAir tempDewpointWater temp
2015-Mar-04 19:34N 57°41' E 010°57'1413.8
2015-Mar-04 18:33N 57°51' E 010°39'1312.5
2015-Mar-04 17:33N 57°46' E 010°17'1815.5
2015-Mar-04 16:24N 57°38' E 009°47'3712.5
2015-Mar-04 13:28N 57°20' E 008°48'2512.0
2015-Mar-04 11:22N 57°09' E 008°06'9917.1
2015-Mar-04 05:33N 55°41' E 006°41'1918.9
2015-Mar-04 04:33N 55°24' E 006°27'1311.8
2015-Mar-04 03:29N 55°12' E 006°20'6616.6
2015-Mar-03 23:32N 54°10' E 005°44'1615.8
2015-Mar-03 22:33N 53°57' E 005°29'1716.8
2015-Mar-03 21:33N 53°46' E 005°08'1716.7
2015-Mar-03 20:33N 53°33' E 004°49'1716.6
2015-Mar-03 19:33N 53°18' E 004°36'2016.6
2015-Mar-03 18:20N 53°00' E 004°21'4916.8
2015-Mar-03 15:23N 52°20' E 003°34'1617.6
2015-Mar-03 14:27N 52°04' E 003°25'1516.8
2015-Mar-03 13:33N 51°50' E 003°17'1717.1
2015-Mar-03 12:33N 51°34' E 003°07'1111.1
2015-Mar-03 11:33N 51°23' E 003°10'3 2.6
2015-Mar-03 10:19N 51°21' E 003°13'0 0.0
2015-Mar-03 09:04N 51°21' E 003°13'0 0.0
2015-Mar-03 08:31N 51°21' E 003°13'0 0.0
2015-Mar-03 07:19N 51°21' E 003°13'0 0.0
2015-Mar-03 06:19N 51°21' E 003°13'0 0.0
2015-Mar-03 05:22N 51°21' E 003°13'0 0.0
2015-Mar-03 04:28N 51°21' E 003°13'0 0.0
2015-Mar-03 03:31N 51°21' E 003°13'0 0.0
2015-Mar-03 02:31N 51°21' E 003°13'0 0.0
2015-Mar-03 01:22N 51°21' E 003°13'0 0.0
2015-Mar-03 00:31N 51°21' E 003°13'0 0.0
2015-Mar-02 23:22N 51°21' E 003°13'0 0.0
2015-Mar-02 22:10N 51°21' E 003°13'0 0.0
2015-Mar-02 21:25N 51°21' E 003°13'0 0.0
2015-Mar-02 20:28N 51°21' E 003°13'0 0.0
2015-Mar-02 19:10N 51°21' E 003°13'0 0.0
2015-Mar-02 18:31N 51°21' E 003°13'0 0.0
2015-Mar-02 17:19N 51°21' E 003°13'0 0.0
2015-Mar-02 16:07N 51°21' E 003°13'0 0.0
2015-Mar-02 15:19N 51°21' E 003°13'0 0.0
2015-Mar-02 14:10N 51°21' E 003°13'0 0.0
2015-Mar-02 13:19N 51°21' E 003°13'0 0.0
2015-Mar-02 12:22N 51°21' E 003°13'0 0.0
2015-Mar-02 11:25N 51°21' E 003°13'0 0.0
2015-Mar-02 10:07N 51°21' E 003°13'0 0.0
2015-Mar-02 09:25N 51°21' E 003°13'0 0.0
2015-Mar-02 06:22N 51°21' E 003°13'2 2.6
2015-Mar-02 05:33N 51°22' E 003°11'1010.4
2015-Mar-02 04:33N 51°32' E 003°07'1615.7
2015-Mar-02 03:33N 51°48' E 003°12'1614.7
2015-Mar-02 02:30N 52°02' E 003°21'1514.7
2015-Mar-02 01:28N 52°16' E 003°30'7114.3
2015-Mar-01 20:30N 53°17' E 004°30'2115.3
2015-Mar-01 19:09N 53°37' E 004°41'914.4
2015-Mar-01 18:33N 53°42' E 004°53'1413.8
2015-Mar-01 17:33N 53°49' E 005°12'1313.4
2015-Mar-01 16:33N 53°60' E 005°27'1313.1
2015-Mar-01 15:34N 54°11' E 005°38'5713.7
2015-Mar-01 11:26N 55°03' E 006°15'1213.3
2015-Mar-01 10:33N 55°14' E 006°23'19811.6
2015-Feb-28 17:29N 57°46' E 010°13'1415.1
2015-Feb-28 16:34N 57°51' E 010°38'1514.5
2015-Feb-28 15:33N 57°44' E 011°03'1615.7
2015-Feb-28 14:33N 57°38' E 011°29'1211.9
2015-Feb-28 13:34N 57°41' E 011°50'1 1.0
2015-Feb-28 12:28N 57°41' E 011°52'0 0.0
2015-Feb-28 11:31N 57°41' E 011°52'0 0.0
2015-Feb-28 10:31N 57°41' E 011°52'0 0.0
2015-Feb-28 09:31N 57°41' E 011°52'0 0.0
2015-Feb-28 08:31N 57°41' E 011°52'0 0.0
2015-Feb-28 07:31N 57°41' E 011°52'0 0.0
2015-Feb-28 06:34N 57°41' E 011°52'4 4.4
2015-Feb-28 05:33N 57°39' E 011°45'1212.3
2015-Feb-28 04:33N 57°37' E 011°22'1312.4
2015-Feb-28 03:33N 57°40' E 010°59'1313.1
2015-Feb-28 02:33N 57°49' E 010°42'6913.7
2015-Feb-27 21:31N 57°22' E 008°43'1514.4
2015-Feb-27 20:26N 57°13' E 008°20'2014.7
2015-Feb-27 19:04N 56°57' E 007°58'8816.0
2015-Feb-27 13:33N 55°40' E 006°41'1313.1
2015-Feb-27 12:33N 55°28' E 006°30'1513.2
2015-Feb-27 11:25N 55°14' E 006°22'1416.5
2015-Feb-27 10:33N 55°00' E 006°14'4916.2
2015-Feb-27 07:33N 54°14' E 005°46'1515.1
2015-Feb-27 06:33N 54°01' E 005°35'1616.1
2015-Feb-27 05:33N 53°50' E 005°15'1616.2
2015-Feb-27 04:33N 53°39' E 004°55'1615.7
2015-Feb-27 03:33N 53°25' E 004°42'1715.8
2015-Feb-27 02:28N 53°10' E 004°29'1415.8
2015-Feb-27 01:33N 52°57' E 004°19'1615.9
2015-Feb-27 00:33N 52°43' E 004°04'1616.5
2015-Feb-26 23:33N 52°32' E 003°45'1616.0
2015-Feb-26 22:33N 52°17' E 003°33'1716.7
2015-Feb-26 21:33N 52°01' E 003°25'1716.5
2015-Feb-26 20:33N 51°47' E 003°12'1716.9
2015-Feb-26 19:34N 51°31' E 003°05'1111.1
2015-Feb-26 18:33N 51°21' E 003°13'0 0.1
2015-Feb-26 15:22N 51°21' E 003°13'0 0.0
2015-Feb-26 14:22N 51°21' E 003°13'0 0.0
2015-Feb-26 13:28N 51°21' E 003°13'0 0.0
2015-Feb-26 12:32N 51°21' E 003°13'0 0.0
2015-Feb-26 11:33N 51°21' E 003°13'0 0.0
2015-Feb-26 10:33N 51°21' E 003°13'0 0.0
2015-Feb-26 09:33N 51°21' E 003°13'10 9.6
2015-Feb-26 08:33N 51°25' E 002°60'1212.4
2015-Feb-26 07:33N 51°37' E 003°08'1414.3
2015-Feb-26 06:33N 51°50' E 003°15'1614.7
2015-Feb-26 05:29N 52°05' E 003°23'1516.3
2015-Feb-26 04:33N 52°19' E 003°33'1716.9
2015-Feb-26 03:33N 52°33' E 003°48'2317.4
2015-Feb-26 02:14N 52°55' E 003°59'1617.2
2015-Feb-26 01:18N 53°06' E 004°18'1516.3
2015-Feb-26 00:24N 53°19' E 004°31'1416.2
2015-Feb-25 23:33N 53°32' E 004°37'1615.6
2015-Feb-25 22:33N 53°43' E 004°56'1616.1
2015-Feb-25 21:33N 53°53' E 005°18'1717.0
2015-Feb-25 20:33N 54°04' E 005°40'7029.4
2015-Feb-25 18:11N 55°10' E 006°18'0 0.2
2015-Feb-25 16:29N 55°09' E 006°18'20014.4
2015-Feb-25 02:33N 57°43' E 010°11'1414.1
2015-Feb-25 01:33N 57°48' E 010°35'1514.8
2015-Feb-25 00:34N 57°44' E 011°02'1615.8
2015-Feb-24 23:33N 57°38' E 011°29'1212.5
2015-Feb-24 22:34N 57°41' E 011°52'0 0.4
2015-Feb-24 21:33N 57°41' E 011°52'0 0.0
2015-Feb-24 20:33N 57°41' E 011°52'0 0.0
2015-Feb-24 19:33N 57°41' E 011°52'0 0.0
2015-Feb-24 18:30N 57°41' E 011°52'0 0.0
2015-Feb-24 17:33N 57°41' E 011°52'0 0.0
2015-Feb-24 16:33N 57°41' E 011°52'0 0.0
2015-Feb-24 15:33N 57°41' E 011°52'0 0.0
2015-Feb-24 14:33N 57°41' E 011°52'0 0.0
2015-Feb-24 13:33N 57°41' E 011°52'0 0.0
2015-Feb-24 12:33N 57°41' E 011°52'0 0.0
2015-Feb-24 11:33N 57°41' E 011°52'0 0.0
2015-Feb-24 10:33N 57°41' E 011°52'0 0.0
2015-Feb-24 09:33N 57°41' E 011°52'0 0.0
2015-Feb-24 08:33N 57°41' E 011°52'0 0.0
2015-Feb-24 07:33N 57°41' E 011°52'0 0.0
2015-Feb-24 06:33N 57°41' E 011°52'0 0.0
2015-Feb-24 05:33N 57°41' E 011°52'0 0.0
2015-Feb-24 04:33N 57°41' E 011°52'0 0.0
2015-Feb-24 03:33N 57°41' E 011°52'0 0.0
2015-Feb-24 02:33N 57°41' E 011°52'0 0.0
2015-Feb-24 01:33N 57°41' E 011°52'0 0.0
2015-Feb-24 00:33N 57°41' E 011°52'0 0.0
2015-Feb-23 23:33N 57°41' E 011°52'0 0.0
2015-Feb-23 22:33N 57°41' E 011°52'0 0.0
2015-Feb-23 21:33N 57°41' E 011°52'0 0.0
2015-Feb-23 20:33N 57°41' E 011°52'0 0.0
2015-Feb-23 19:33N 57°41' E 011°52'0 0.0
2015-Feb-23 18:33N 57°41' E 011°52'0 0.0
2015-Feb-23 17:33N 57°41' E 011°52'0 0.0
2015-Feb-23 16:33N 57°41' E 011°52'0 0.0
2015-Feb-23 15:33N 57°41' E 011°52'0 0.0
2015-Feb-23 14:33N 57°41' E 011°52'0 0.0
2015-Feb-23 13:33N 57°41' E 011°52'0 0.0
2015-Feb-23 12:33N 57°41' E 011°52'0 0.0
2015-Feb-23 11:33N 57°41' E 011°52'0 0.0
2015-Feb-23 10:33N 57°41' E 011°52'0 0.0
2015-Feb-23 09:33N 57°41' E 011°52'0 0.0
2015-Feb-23 08:33N 57°41' E 011°52'0 0.0
2015-Feb-23 07:33N 57°41' E 011°52'0 0.0
2015-Feb-23 06:33N 57°41' E 011°52'0 0.0
2015-Feb-23 05:33N 57°41' E 011°52'0 0.0
2015-Feb-23 04:33N 57°41' E 011°52'0 0.0
2015-Feb-23 03:33N 57°41' E 011°52'0 0.0
2015-Feb-23 02:33N 57°41' E 011°52'0 0.0
2015-Feb-23 01:33N 57°41' E 011°52'0 0.0
2015-Feb-23 00:33N 57°41' E 011°52'0 0.0
2015-Feb-22 23:33N 57°41' E 011°52'0 0.0
2015-Feb-22 22:33N 57°41' E 011°52'0 0.0
2015-Feb-22 21:33N 57°41' E 011°52'0 0.0
2015-Feb-22 20:33N 57°41' E 011°52'  

Dump ship's entire track history